Time;durP1;ratioP1;P1;durP2;ratioP2;P2;SDS_P1;SDS_P2;PMS_P1;PMS_P2;Temp;Humidity;BMP_temperature;BMP_pressure;BME280_temperature;BME280_humidity;BME280_pressure;Samples;Min_cycle;Max_cycle;Signal;HPM_P1;HPM_P2
2023/08/06 00:01:14;;;;;;;3.03;2.30;;;21.50;99.90;;;;;;4591456;19;20022;-29
2023/08/06 00:02:55;;;;;;;3.83;1.90;;;21.40;99.90;;;;;;4591047;19;20503;-31
2023/08/06 00:04:26;;;;;;;2.97;1.98;;;21.40;99.90;;;;;;4590696;19;20027;-27
2023/08/06 00:05:58;;;;;;;;;;;21.50;99.90;;;;;;4591492;19;20332;-28
2023/08/06 00:07:31;;;;;;;3.58;1.88;;;21.50;99.90;;;;;;4589847;19;20323;-26
2023/08/06 00:09:04;;;;;;;3.40;2.20;;;21.40;99.90;;;;;;4589542;19;20425;-25
2023/08/06 00:10:37;;;;;;;2.50;1.80;;;21.40;99.90;;;;;;4590013;19;20010;-28
2023/08/06 00:12:09;;;;;;;3.13;1.98;;;21.40;99.90;;;;;;4590853;19;20018;-27
2023/08/06 00:13:40;;;;;;;3.25;1.90;;;21.40;99.90;;;;;;4590021;19;20006;-25
2023/08/06 00:15:11;;;;;;;;;;;21.50;99.90;;;;;;4591749;19;20351;-25
2023/08/06 00:16:45;;;;;;;4.47;2.00;;;21.40;99.90;;;;;;4590551;19;19911;-25
2023/08/06 00:18:17;;;;;;;2.15;1.55;;;21.40;99.90;;;;;;4590515;19;20027;-27
2023/08/06 00:19:50;;;;;;;2.90;2.05;;;21.40;99.90;;;;;;4590825;19;20347;-28
2023/08/06 00:21:21;;;;;;;3.03;2.05;;;21.40;99.90;;;;;;4590747;19;20017;-25
2023/08/06 00:22:52;;;;;;;5.25;2.88;;;21.40;99.90;;;;;;4588980;19;20011;-27
2023/08/06 00:24:24;;;;;;;3.15;2.10;;;21.40;99.90;;;;;;4589724;19;20014;-25
2023/08/06 00:25:55;;;;;;;4.10;2.58;;;21.40;99.90;;;;;;4589090;19;20002;-26
2023/08/06 00:27:26;;;;;;;3.88;2.45;;;21.40;99.90;;;;;;4589782;19;20397;-25
2023/08/06 00:28:57;;;;;;;4.15;2.20;;;21.40;99.90;;;;;;4589611;19;20019;-27
2023/08/06 00:30:31;;;;;;;2.70;1.80;;;21.30;99.90;;;;;;4590604;19;20033;-26
2023/08/06 00:32:01;;;;;;;;;;;21.30;99.90;;;;;;4590598;19;20459;-25
2023/08/06 00:33:33;;;;;;;3.92;2.40;;;21.30;99.90;;;;;;4588928;19;19930;-26
2023/08/06 00:35:04;;;;;;;3.33;2.30;;;21.30;99.90;;;;;;4588809;19;20531;-29
2023/08/06 00:36:36;;;;;;;2.97;2.40;;;21.30;99.90;;;;;;4590017;19;20014;-26
2023/08/06 00:38:09;;;;;;;3.90;2.20;;;21.30;99.90;;;;;;4589425;19;20019;-30
2023/08/06 00:39:41;;;;;;;3.55;1.88;;;21.30;99.90;;;;;;4587545;19;20622;-31
2023/08/06 00:41:12;;;;;;;3.80;2.38;;;21.40;99.90;;;;;;4589439;19;20007;-25
2023/08/06 00:42:44;;;;;;;;;;;21.40;99.90;;;;;;4590279;19;20011;-28
2023/08/06 00:44:15;;;;;;;3.60;2.35;;;21.40;99.90;;;;;;4589721;19;20237;-25
2023/08/06 00:45:48;;;;;;;4.00;2.40;;;21.40;99.90;;;;;;4589470;19;20015;-28
2023/08/06 00:47:21;;;;;;;3.80;2.47;;;21.30;99.90;;;;;;4594016;19;20074;-25
2023/08/06 00:48:52;;;;;;;3.20;2.55;;;21.40;99.90;;;;;;4595208;19;20043;-26
2023/08/06 00:50:23;;;;;;;3.28;2.00;;;21.40;99.90;;;;;;4593692;19;20002;-26
2023/08/06 00:51:55;;;;;;;4.35;2.40;;;21.40;99.90;;;;;;4594215;19;20019;-27
2023/08/06 00:53:27;;;;;;;4.03;2.88;;;21.40;99.90;;;;;;4592123;19;20018;-25
2023/08/06 00:54:59;;;;;;;2.85;2.10;;;21.30;99.90;;;;;;4593509;19;20034;-30
2023/08/06 00:56:31;;;;;;;;;;;21.30;99.90;;;;;;4594233;19;20015;-27
2023/08/06 00:58:02;;;;;;;3.63;2.30;;;21.30;99.90;;;;;;4594161;19;20345;-28
2023/08/06 00:59:33;;;;;;;4.38;2.97;;;21.30;99.90;;;;;;4593219;19;20015;-25
2023/08/06 01:01:05;;;;;;;4.60;2.50;;;21.30;99.90;;;;;;4592195;19;20018;-25
2023/08/06 01:02:36;;;;;;;2.88;2.10;;;21.20;99.90;;;;;;4592036;19;20017;-29
2023/08/06 01:04:07;;;;;;;3.88;2.53;;;21.20;99.90;;;;;;4592296;19;20017;-28
2023/08/06 01:05:38;;;;;;;4.10;2.30;;;21.20;99.90;;;;;;4591991;19;20019;-31
2023/08/06 01:07:19;;;;;;;4.57;2.63;;;21.20;99.90;;;;;;4592345;19;20017;-26
2023/08/06 01:08:58;;;;;;;3.67;2.28;;;21.20;99.90;;;;;;4592204;19;20494;-27
2023/08/06 01:11:06;;;;;;;4.32;2.70;;;21.20;99.90;;;;;;4591878;19;20019;-25
2023/08/06 01:13:05;;;;;;;6.80;3.20;;;21.20;99.90;;;;;;4592057;19;20015;-25
2023/08/06 01:14:51;;;;;;;3.50;2.58;;;21.20;99.90;;;;;;4591591;19;20010;-26
2023/08/06 01:16:24;;;;;;;4.05;2.50;;;21.20;99.90;;;;;;4591800;19;20527;-25
2023/08/06 01:17:57;;;;;;;3.50;2.38;;;21.20;99.90;;;;;;4591636;19;20006;-25
2023/08/06 01:19:28;;;;;;;4.00;2.35;;;21.20;99.90;;;;;;4591904;19;20011;-31
2023/08/06 01:21:00;;;;;;;3.67;2.55;;;21.30;99.90;;;;;;4589792;19;20113;-27
2023/08/06 01:22:31;;;;;;;3.25;2.10;;;21.30;99.90;;;;;;4590527;19;20424;-30
2023/08/06 01:24:03;;;;;;;3.40;2.42;;;21.40;99.90;;;;;;4592480;19;20489;-27
2023/08/06 01:25:57;;;;;;;3.70;2.70;;;21.40;99.90;;;;;;4591464;19;20499;-25
2023/08/06 01:27:38;;;;;;;3.83;2.38;;;21.30;99.90;;;;;;4591805;19;20092;-25
2023/08/06 01:29:17;;;;;;;3.35;1.90;;;21.40;99.90;;;;;;4591785;19;20014;-31
2023/08/06 01:30:49;;;;;;;12.90;2.70;;;21.50;99.90;;;;;;4591735;19;20472;-25
2023/08/06 01:32:21;;;;;;;4.60;2.05;;;21.60;99.90;;;;;;4591740;19;20017;-25
2023/08/06 01:33:53;;;;;;;3.75;2.28;;;21.70;99.90;;;;;;4591403;19;20010;-26
2023/08/06 01:35:27;;;;;;;2.78;2.08;;;21.80;99.90;;;;;;4591194;19;20014;-30
2023/08/06 01:38:54;;;;;;;3.50;2.55;;;21.70;99.90;;;;;;4591948;19;20470;-26
2023/08/06 01:40:29;;;;;;;4.18;2.78;;;21.60;99.90;;;;;;4591259;19;20010;-27
2023/08/06 01:42:00;;;;;;;4.55;2.85;;;21.50;99.90;;;;;;4591254;19;20011;-25
2023/08/06 01:43:32;;;;;;;6.28;2.97;;;21.40;99.90;;;;;;4591490;19;20035;-30
2023/08/06 01:45:06;;;;;;;4.10;2.72;;;21.40;99.90;;;;;;4591617;19;20018;-25
2023/08/06 01:46:38;;;;;;;3.78;2.33;;;21.40;99.90;;;;;;4590476;19;20006;-28
2023/08/06 01:48:09;;;;;;;4.45;2.78;;;21.40;99.90;;;;;;4591428;19;20632;-25
2023/08/06 01:49:41;;;;;;;3.40;2.90;;;21.40;99.90;;;;;;4591478;19;20476;-32
2023/08/06 01:51:12;;;;;;;3.92;2.85;;;21.40;99.90;;;;;;4591784;19;20048;-25
2023/08/06 01:52:43;;;;;;;3.08;2.42;;;21.30;99.90;;;;;;4593095;19;20021;-25
2023/08/06 01:54:15;;;;;;;4.05;2.75;;;21.30;99.90;;;;;;4592317;19;20050;-25
2023/08/06 01:55:48;;;;;;;3.35;2.58;;;21.30;99.90;;;;;;4593494;19;20018;-26
2023/08/06 01:57:19;;;;;;;4.40;3.33;;;21.20;99.90;;;;;;4592692;19;20006;-25
2023/08/06 01:58:52;;;;;;;4.30;3.20;;;21.20;99.90;;;;;;4589661;19;20011;-28
2023/08/06 02:00:24;;;;;;;4.68;2.97;;;21.20;99.90;;;;;;4593037;19;20082;-25
2023/08/06 02:01:56;;;;;;;4.13;2.90;;;21.20;99.90;;;;;;4593717;19;20010;-27
2023/08/06 02:03:28;;;;;;;;;;;21.20;99.90;;;;;;4591953;19;20010;-26
2023/08/06 02:04:59;;;;;;;4.45;2.80;;;21.10;99.90;;;;;;4591465;19;19970;-25
2023/08/06 02:06:33;;;;;;;4.95;3.10;;;21.20;99.90;;;;;;4590054;19;20486;-31
2023/08/06 02:08:06;;;;;;;4.72;3.00;;;21.20;99.90;;;;;;4590732;19;20019;-27
2023/08/06 02:09:43;;;;;;;4.78;2.78;;;21.20;99.90;;;;;;4591573;19;20013;-25
2023/08/06 02:11:15;;;;;;;5.22;3.00;;;21.20;99.90;;;;;;4590614;19;20074;-29
2023/08/06 02:12:47;;;;;;;6.45;2.88;;;21.10;99.90;;;;;;4591045;19;20352;-29
2023/08/06 02:14:19;;;;;;;4.22;3.10;;;21.10;99.90;;;;;;4591121;19;20349;-26
2023/08/06 02:15:51;;;;;;;5.18;2.83;;;21.10;99.90;;;;;;4590997;19;20482;-30
2023/08/06 02:17:24;;;;;;;4.65;2.90;;;21.10;99.90;;;;;;4590847;19;20015;-30
2023/08/06 02:18:56;;;;;;;3.60;2.60;;;21.10;99.90;;;;;;4590698;19;20082;-28
2023/08/06 02:20:28;;;;;;;3.35;2.40;;;21.10;99.90;;;;;;4589729;19;20464;-25
2023/08/06 02:21:59;;;;;;;3.33;2.75;;;21.10;99.90;;;;;;4590383;19;20329;-25
2023/08/06 02:23:30;;;;;;;3.83;2.72;;;21.10;99.90;;;;;;4590638;19;20464;-25
2023/08/06 02:25:01;;;;;;;5.45;3.08;;;21.10;99.90;;;;;;4590517;19;20006;-25
2023/08/06 02:26:33;;;;;;;4.22;3.05;;;21.10;99.90;;;;;;4590104;19;20006;-29
2023/08/06 02:28:05;;;;;;;3.58;2.42;;;21.10;99.90;;;;;;4590499;19;20017;-27
2023/08/06 02:29:37;;;;;;;2.90;2.30;;;21.10;99.90;;;;;;4590567;19;20033;-26
2023/08/06 02:31:09;;;;;;;4.03;2.80;;;21.10;99.90;;;;;;4590854;19;20007;-30
2023/08/06 02:32:40;;;;;;;4.10;2.92;;;21.10;99.90;;;;;;4590963;19;20013;-25
2023/08/06 02:34:13;;;;;;;4.50;2.83;;;21.10;99.90;;;;;;4590382;19;20010;-28
2023/08/06 02:35:44;;;;;;;;;;;21.10;99.90;;;;;;4592240;19;20385;-25
2023/08/06 02:37:16;;;;;;;;;;;21.10;99.90;;;;;;4593207;19;19954;-25
2023/08/06 02:38:47;;;;;;;3.63;2.92;;;21.10;99.90;;;;;;4590161;19;19911;-26
2023/08/06 02:40:19;;;;;;;3.85;2.78;;;21.10;99.90;;;;;;4591126;19;20341;-26
2023/08/06 02:41:50;;;;;;;4.32;2.58;;;21.10;99.90;;;;;;4592129;19;20013;-26
2023/08/06 02:43:22;;;;;;;6.30;2.92;;;21.10;99.90;;;;;;4591396;19;20332;-25
2023/08/06 02:44:55;;;;;;;5.00;2.90;;;21.10;99.90;;;;;;4591197;19;20021;-26
2023/08/06 02:46:27;;;;;;;2.95;2.58;;;21.10;99.90;;;;;;4590176;19;20010;-29
2023/08/06 02:47:59;;;;;;;4.05;3.17;;;21.10;99.90;;;;;;4591246;19;20010;-29
2023/08/06 02:49:30;;;;;;;;;;;21.00;99.90;;;;;;4593227;19;20017;-30
2023/08/06 02:51:01;;;;;;;4.07;2.50;;;21.10;99.90;;;;;;4592074;19;19926;-30
2023/08/06 02:52:34;;;;;;;3.83;2.67;;;21.10;99.90;;;;;;4591039;19;20468;-23
2023/08/06 02:54:05;;;;;;;4.25;2.78;;;21.00;99.90;;;;;;4591914;19;20002;-28
2023/08/06 02:55:36;;;;;;;3.90;3.25;;;21.10;99.90;;;;;;4593158;19;19998;-25
2023/08/06 02:57:08;;;;;;;3.75;3.03;;;21.00;99.90;;;;;;4592241;19;20002;-29
2023/08/06 02:58:40;;;;;;;;;;;21.00;99.90;;;;;;4593419;19;20019;-31
2023/08/06 03:00:26;;;;;;;2.80;2.40;;;21.00;99.90;;;;;;4592010;19;19935;-25
2023/08/06 03:01:58;;;;;;;3.95;2.92;;;21.00;99.90;;;;;;4591333;19;20463;-27
2023/08/06 03:03:32;;;;;;;3.90;2.70;;;21.00;99.90;;;;;;4591637;19;20013;-26
2023/08/06 03:05:06;;;;;;;5.03;3.00;;;21.00;99.90;;;;;;4592144;19;20073;-28
2023/08/06 03:06:38;;;;;;;3.15;2.50;;;21.00;99.90;;;;;;4590339;19;20014;-25
2023/08/06 03:08:09;;;;;;;3.28;2.70;;;21.00;99.90;;;;;;4591015;19;20014;-25
2023/08/06 03:09:41;;;;;;;3.83;2.35;;;21.00;99.90;;;;;;4590740;19;20070;-25
2023/08/06 03:11:13;;;;;;;3.15;2.60;;;21.00;99.90;;;;;;4590816;19;20010;-25
2023/08/06 03:12:47;;;;;;;4.80;2.85;;;21.10;99.90;;;;;;4591524;19;20025;-25
2023/08/06 03:14:19;;;;;;;3.15;2.35;;;21.00;99.90;;;;;;4590658;19;20002;-25
2023/08/06 03:15:58;;;;;;;3.15;2.35;;;21.00;99.90;;;;;;4591386;19;20011;-27
2023/08/06 03:17:32;;;;;;;3.80;2.88;;;21.00;99.90;;;;;;4592015;19;20021;-26
2023/08/06 03:19:04;;;;;;;2.92;2.20;;;21.00;99.90;;;;;;4590387;19;20002;-27
2023/08/06 03:20:37;;;;;;;4.63;2.83;;;21.00;99.90;;;;;;4590770;19;20092;-29
2023/08/06 03:22:08;;;;;;;4.13;2.80;;;21.00;99.90;;;;;;4590939;19;20471;-24
2023/08/06 03:23:40;;;;;;;4.70;2.80;;;21.00;99.90;;;;;;4591844;19;20029;-25
2023/08/06 03:25:11;;;;;;;3.80;2.58;;;21.00;99.90;;;;;;4590286;19;20002;-26
2023/08/06 03:26:45;;;;;;;3.97;2.78;;;21.00;99.90;;;;;;4589433;19;20083;-28
2023/08/06 03:28:16;;;;;;;3.00;2.50;;;21.00;99.90;;;;;;4590947;19;20011;-25
2023/08/06 03:29:50;;;;;;;3.97;2.55;;;21.00;99.90;;;;;;4590426;19;20014;-25
2023/08/06 03:31:22;;;;;;;3.28;2.38;;;21.00;99.90;;;;;;4591643;19;20466;-25
2023/08/06 03:32:53;;;;;;;4.03;2.63;;;21.00;99.90;;;;;;4590975;19;20015;-26
2023/08/06 03:34:26;;;;;;;4.43;2.83;;;21.10;99.90;;;;;;4591029;19;20014;-25
2023/08/06 03:35:59;;;;;;;3.17;2.53;;;21.00;99.90;;;;;;4590133;19;20010;-30
2023/08/06 03:37:30;;;;;;;4.53;2.53;;;21.10;99.90;;;;;;4591454;19;20016;-30
2023/08/06 03:39:01;;;;;;;3.25;2.58;;;21.00;99.90;;;;;;4590967;19;20018;-32
2023/08/06 03:40:35;;;;;;;3.15;2.30;;;21.10;99.90;;;;;;4591662;19;20011;-25
2023/08/06 03:42:08;;;;;;;3.42;2.22;;;21.10;99.90;;;;;;4590029;19;20018;-26
2023/08/06 03:43:39;;;;;;;2.58;2.20;;;21.20;99.90;;;;;;4591305;19;20316;-25
2023/08/06 03:45:12;;;;;;;3.72;2.67;;;21.20;99.90;;;;;;4589882;19;20018;-25
2023/08/06 03:46:45;;;;;;;2.42;2.08;;;21.20;99.90;;;;;;4587902;19;20015;-25
2023/08/06 03:48:17;;;;;;;3.38;2.17;;;21.30;99.90;;;;;;4590586;19;20070;-26
2023/08/06 03:49:51;;;;;;;2.22;1.92;;;21.30;99.90;;;;;;4591028;19;20043;-26
2023/08/06 03:51:26;;;;;;;3.72;2.58;;;21.40;99.90;;;;;;4589782;19;20371;-25
2023/08/06 03:52:57;;;;;;;3.50;2.40;;;21.30;99.90;;;;;;4589995;19;20010;-25
2023/08/06 03:54:29;;;;;;;4.47;2.70;;;21.30;99.90;;;;;;4590014;19;20002;-25
2023/08/06 03:56:02;;;;;;;2.65;1.73;;;21.20;99.90;;;;;;4590684;19;19998;-26
2023/08/06 03:57:33;;;;;;;3.05;2.08;;;21.30;99.90;;;;;;4589809;19;20014;-25
2023/08/06 03:59:04;;;;;;;2.92;2.30;;;21.40;99.90;;;;;;4590676;19;20467;-25
2023/08/06 04:00:36;;;;;;;3.25;2.17;;;21.30;99.90;;;;;;4590870;19;20030;-28
2023/08/06 04:02:08;;;;;;;4.13;2.63;;;21.30;99.90;;;;;;4591468;19;20006;-25
2023/08/06 04:03:41;;;;;;;2.75;1.83;;;21.30;99.90;;;;;;4589772;19;20010;-25
2023/08/06 04:05:14;;;;;;;2.60;2.25;;;21.30;99.90;;;;;;4590608;19;20010;-29
2023/08/06 04:06:46;;;;;;;3.13;2.42;;;21.30;99.90;;;;;;4590016;19;20442;-24
2023/08/06 04:08:19;;;;;;;3.08;2.22;;;21.30;99.90;;;;;;4589593;19;20018;-27
2023/08/06 04:09:53;;;;;;;4.15;2.10;;;21.30;99.90;;;;;;4590209;19;20467;-27
2023/08/06 04:11:24;;;;;;;2.45;2.22;;;21.30;99.90;;;;;;4590758;19;20015;-28
2023/08/06 04:12:56;;;;;;;3.63;2.45;;;21.20;99.90;;;;;;4589628;19;20476;-25
2023/08/06 04:14:27;;;;;;;2.92;2.30;;;21.20;99.90;;;;;;4590184;19;20015;-26
2023/08/06 04:16:02;;;;;;;;;;;21.20;99.90;;;;;;4590387;19;20013;-26
2023/08/06 04:17:35;;;;;;;4.00;2.60;;;21.20;99.90;;;;;;4590571;19;19925;-27
2023/08/06 04:19:08;;;;;;;3.25;2.55;;;21.20;99.90;;;;;;4590109;19;20019;-30
2023/08/06 04:20:47;;;;;;;2.97;2.58;;;21.10;99.90;;;;;;4588795;19;20348;-25
2023/08/06 04:22:19;;;;;;;3.13;2.58;;;21.10;99.90;;;;;;4589003;19;20015;-29
2023/08/06 04:23:51;;;;;;;3.95;2.70;;;21.10;99.90;;;;;;4589472;19;20014;-28
2023/08/06 04:25:23;;;;;;;3.50;3.05;;;21.10;99.90;;;;;;4589725;19;20062;-25
2023/08/06 04:26:55;;;;;;;3.83;2.92;;;21.10;99.90;;;;;;4587943;19;20011;-28
2023/08/06 04:28:27;;;;;;;2.80;2.42;;;21.10;99.90;;;;;;4590072;19;20022;-25
2023/08/06 04:30:01;;;;;;;3.42;2.92;;;21.00;99.90;;;;;;4589619;19;20523;-25
2023/08/06 04:31:34;;;;;;;3.28;2.95;;;21.00;99.90;;;;;;4589239;19;20021;-25
2023/08/06 04:33:08;;;;;;;3.15;2.53;;;21.00;99.90;;;;;;4589031;19;20006;-26
2023/08/06 04:34:41;;;;;;;3.45;2.78;;;21.00;99.90;;;;;;4587565;19;20010;-26
2023/08/06 04:36:14;;;;;;;4.63;2.70;;;21.00;99.90;;;;;;4588197;19;20021;-27
2023/08/06 04:37:45;;;;;;;4.15;2.65;;;21.00;99.90;;;;;;4588756;19;20448;-25
2023/08/06 04:39:18;;;;;;;3.22;2.33;;;21.00;99.90;;;;;;4587836;19;20015;-27
2023/08/06 04:40:51;;;;;;;3.97;2.65;;;21.00;99.90;;;;;;4588026;19;20018;-25
2023/08/06 04:43:11;;;;;;;3.33;2.55;;;21.00;99.90;;;;;;4587085;19;20003;-25
2023/08/06 04:44:44;;;;;;;3.13;2.60;;;21.00;99.90;;;;;;4587878;19;20018;-25
2023/08/06 04:46:15;;;;;;;3.97;2.90;;;21.00;99.90;;;;;;4587475;19;20464;-28
2023/08/06 04:47:46;;;;;;;4.05;3.55;;;21.00;99.90;;;;;;4587835;19;20006;-26
2023/08/06 04:49:20;;;;;;;4.25;2.78;;;21.00;99.90;;;;;;4587773;19;20019;-27
2023/08/06 04:50:55;;;;;;;3.22;2.92;;;21.00;99.90;;;;;;4583317;19;20048;-27
2023/08/06 04:52:32;;;;;;;3.55;2.85;;;21.00;99.90;;;;;;4587121;19;20026;-26
2023/08/06 04:54:04;;;;;;;3.47;2.75;;;21.10;99.90;;;;;;4587143;19;20037;-26
2023/08/06 04:55:35;;;;;;;3.90;3.08;;;21.10;99.90;;;;;;4588291;19;20335;-29
2023/08/06 04:57:06;;;;;;;3.42;3.13;;;21.10;99.90;;;;;;4587054;19;20027;-26
2023/08/06 04:58:38;;;;;;;4.18;3.65;;;21.10;99.90;;;;;;4588009;19;20548;-27
2023/08/06 05:00:10;;;;;;;4.40;2.95;;;21.10;99.90;;;;;;4585297;19;20035;-30
2023/08/06 05:01:41;;;;;;;4.35;3.25;;;21.10;99.90;;;;;;4588653;19;20081;-27
2023/08/06 05:03:12;;;;;;;3.88;3.42;;;21.10;99.90;;;;;;4587592;19;20014;-28
2023/08/06 05:04:43;;;;;;;3.25;2.95;;;21.10;99.90;;;;;;4587838;19;20018;-27
2023/08/06 05:06:15;;;;;;;3.55;2.78;;;21.10;99.90;;;;;;4587531;19;20007;-26
2023/08/06 05:07:48;;;;;;;3.55;3.25;;;21.10;99.90;;;;;;4584907;19;20014;-25
2023/08/06 05:09:22;;;;;;;3.72;2.85;;;21.10;99.90;;;;;;4589012;19;20015;-26
2023/08/06 05:10:54;;;;;;;3.30;3.00;;;21.10;99.90;;;;;;4587775;19;20433;-31
2023/08/06 05:12:26;;;;;;;4.78;3.45;;;21.10;99.90;;;;;;4587565;19;20022;-29
2023/08/06 05:13:57;;;;;;;3.97;2.90;;;21.10;99.90;;;;;;4589504;19;20019;-29
2023/08/06 05:15:28;;;;;;;3.85;3.03;;;21.10;99.90;;;;;;4590493;19;20013;-27
2023/08/06 05:17:02;;;;;;;3.10;2.80;;;21.10;99.90;;;;;;4588383;19;20014;-29
2023/08/06 05:18:34;;;;;;;3.05;2.75;;;21.10;99.90;;;;;;4588810;19;20011;-27
2023/08/06 05:20:06;;;;;;;3.33;2.70;;;21.10;99.90;;;;;;4586910;19;20037;-25
2023/08/06 05:21:37;;;;;;;3.25;2.60;;;21.10;99.90;;;;;;4588503;19;20023;-26
2023/08/06 05:23:08;;;;;;;3.83;2.60;;;21.10;99.90;;;;;;4587579;19;20017;-27
2023/08/06 05:24:54;;;;;;;2.25;2.00;;;21.10;99.90;;;;;;4589571;19;20023;-26
2023/08/06 05:26:25;;;;;;;;;;;21.10;99.90;;;;;;4589185;19;20017;-25
2023/08/06 05:27:58;;;;;;;2.90;2.10;;;21.10;99.90;;;;;;4588048;19;19932;-25
2023/08/06 05:29:29;;;;;;;2.85;2.45;;;21.10;99.90;;;;;;4589300;19;20023;-25
2023/08/06 05:31:06;;;;;;;3.60;2.50;;;21.10;99.90;;;;;;4589025;19;20015;-29
2023/08/06 05:32:37;;;;;;;2.90;2.30;;;21.10;99.90;;;;;;4591235;19;20013;-26
2023/08/06 05:34:09;;;;;;;2.85;2.38;;;21.10;99.90;;;;;;4592925;19;20392;-27
2023/08/06 05:35:42;;;;;;;2.45;2.08;;;21.10;99.90;;;;;;4593292;19;20344;-26
2023/08/06 05:37:14;;;;;;;3.70;2.10;;;21.10;99.90;;;;;;4592503;19;20022;-26
2023/08/06 05:38:45;;;;;;;2.47;1.98;;;21.10;99.90;;;;;;4591517;19;20006;-28
2023/08/06 05:40:16;;;;;;;2.13;1.92;;;21.20;99.90;;;;;;4593561;19;20482;-29
2023/08/06 05:41:48;;;;;;;2.90;2.25;;;21.20;99.90;;;;;;4592724;19;20073;-25
2023/08/06 05:43:19;;;;;;;3.05;2.00;;;21.20;99.90;;;;;;4592396;19;20128;-26
2023/08/06 05:44:50;;;;;;;5.07;2.10;;;21.20;99.90;;;;;;4595627;19;20483;-28
2023/08/06 05:46:23;;;;;;;2.47;1.95;;;21.20;99.90;;;;;;4593480;19;20007;-26
2023/08/06 05:47:58;;;;;;;1.83;1.60;;;21.30;99.90;;;;;;4593026;19;20361;-30
2023/08/06 05:49:29;;;;;;;3.55;1.80;;;21.30;99.90;;;;;;4588669;19;20018;-29
2023/08/06 05:51:00;;;;;;;2.10;1.75;;;21.30;99.90;;;;;;4592605;19;20003;-30
2023/08/06 05:52:33;;;;;;;2.50;1.55;;;21.30;99.90;;;;;;4593499;19;20336;-26
2023/08/06 05:54:05;;;;;;;;;;;21.40;99.90;;;;;;4594220;19;20036;-25
2023/08/06 05:55:36;;;;;;;2.42;1.83;;;21.40;99.90;;;;;;4593014;19;19915;-25
2023/08/06 05:57:07;;;;;;;2.50;2.03;;;21.40;99.90;;;;;;4592726;19;20495;-29
2023/08/06 05:58:40;;;;;;;1.77;1.50;;;21.40;99.90;;;;;;4592346;19;20020;-28
2023/08/06 06:00:11;;;;;;;2.85;1.88;;;21.40;99.90;;;;;;4592121;19;20511;-29
2023/08/06 06:01:43;;;;;;;3.05;2.00;;;21.40;99.90;;;;;;4592214;19;20015;-29
2023/08/06 06:03:15;;;;;;;3.10;1.90;;;21.40;99.90;;;;;;4592165;19;20002;-29
2023/08/06 06:04:46;;;;;;;2.55;2.33;;;21.40;99.90;;;;;;4591459;19;20066;-25
2023/08/06 06:06:18;;;;;;;3.53;3.08;;;21.00;99.90;;;;;;4591626;19;20022;-24
2023/08/06 06:07:50;;;;;;;3.40;3.10;;;19.60;99.90;;;;;;4592108;19;20419;-26
2023/08/06 06:09:21;;;;;;;3.63;3.30;;;19.00;99.90;;;;;;4592336;19;20007;-25
2023/08/06 06:10:53;;;;;;;4.00;3.58;;;18.80;99.90;;;;;;4592563;19;20017;-30
2023/08/06 06:12:26;;;;;;;4.22;3.83;;;18.60;99.90;;;;;;4591543;19;20495;-29
2023/08/06 06:13:59;;;;;;;4.32;3.60;;;18.60;99.90;;;;;;4591860;19;20007;-25
2023/08/06 06:15:31;;;;;;;3.92;3.53;;;18.60;99.90;;;;;;4591870;19;20014;-26
2023/08/06 06:17:04;;;;;;;4.38;3.97;;;18.60;99.90;;;;;;4592599;19;20021;-25
2023/08/06 06:18:36;;;;;;;5.30;4.80;;;18.60;99.90;;;;;;4593013;19;20010;-25
2023/08/06 06:20:07;;;;;;;4.93;4.53;;;18.70;99.90;;;;;;4591182;19;20080;-25
2023/08/06 06:21:39;;;;;;;4.65;4.25;;;18.60;99.90;;;;;;4591514;19;20475;-25
2023/08/06 06:23:11;;;;;;;4.75;4.35;;;18.70;99.90;;;;;;4591812;19;20010;-27
2023/08/06 06:24:43;;;;;;;4.95;4.55;;;18.70;99.90;;;;;;4593636;19;20020;-29
2023/08/06 06:26:14;;;;;;;;;;;18.70;99.90;;;;;;4592177;19;20422;-25
2023/08/06 06:27:46;;;;;;;5.68;5.07;;;18.70;99.90;;;;;;4592325;19;19919;-25
2023/08/06 06:29:18;;;;;;;5.18;4.68;;;18.70;99.90;;;;;;4592230;19;20092;-25
2023/08/06 06:30:50;;;;;;;5.05;4.53;;;18.70;99.90;;;;;;4591046;19;20030;-24
2023/08/06 06:32:23;;;;;;;5.15;4.65;;;18.70;99.90;;;;;;4591961;19;20010;-24
2023/08/06 06:33:54;;;;;;;4.57;4.18;;;18.70;99.90;;;;;;4591195;19;20010;-30
2023/08/06 06:35:26;;;;;;;4.57;4.18;;;18.70;99.90;;;;;;4591623;19;20022;-24
2023/08/06 06:36:57;;;;;;;4.65;4.22;;;18.70;99.90;;;;;;4593036;19;20033;-27
2023/08/06 06:38:28;;;;;;;4.80;4.30;;;18.70;99.90;;;;;;4592578;19;20114;-25
2023/08/06 06:39:59;;;;;;;4.50;4.10;;;18.70;99.90;;;;;;4591194;19;20015;-25
2023/08/06 06:41:32;;;;;;;4.57;4.05;;;18.70;99.90;;;;;;4591181;19;20097;-27
2023/08/06 06:43:05;;;;;;;5.60;4.00;;;18.70;99.90;;;;;;4590560;19;20348;-30
2023/08/06 06:44:37;;;;;;;4.32;3.92;;;18.70;99.90;;;;;;4591432;19;20007;-24
2023/08/06 06:46:09;;;;;;;4.45;4.05;;;18.70;99.90;;;;;;4590118;19;20359;-29
2023/08/06 06:47:41;;;;;;;4.72;4.30;;;18.70;99.90;;;;;;4591738;19;20109;-24
2023/08/06 06:49:13;;;;;;;;;;;18.70;99.90;;;;;;4592632;19;20467;-26
2023/08/06 06:50:48;;;;;;;4.50;4.10;;;18.70;99.90;;;;;;4591497;19;19915;-24
2023/08/06 06:52:19;;;;;;;4.38;3.97;;;18.70;99.90;;;;;;4590733;19;20345;-25
2023/08/06 06:53:50;;;;;;;4.28;3.88;;;18.70;99.90;;;;;;4591471;19;20014;-28
2023/08/06 06:55:22;;;;;;;4.65;4.18;;;18.70;99.90;;;;;;4591792;19;20078;-25
2023/08/06 06:56:53;;;;;;;;;;;18.70;99.90;;;;;;4591927;19;20007;-27
2023/08/06 06:58:24;;;;;;;4.97;4.50;;;18.70;99.90;;;;;;4592167;19;20237;-27
2023/08/06 06:59:55;;;;;;;4.40;4.00;;;18.70;99.90;;;;;;4591546;19;20512;-25
2023/08/06 07:01:30;;;;;;;5.30;4.80;;;18.70;99.90;;;;;;4591115;19;20030;-24
2023/08/06 07:03:01;;;;;;;;;;;18.70;99.90;;;;;;4591724;19;20010;-29
2023/08/06 07:04:32;;;;;;;4.60;4.13;;;18.70;99.90;;;;;;4590892;19;19922;-24
2023/08/06 07:06:06;;;;;;;5.18;4.68;;;18.70;99.90;;;;;;4590734;19;20009;-24
2023/08/06 07:07:38;;;;;;;5.00;4.50;;;18.70;99.90;;;;;;4591662;19;20074;-25
2023/08/06 07:09:11;;;;;;;4.93;4.43;;;18.80;99.90;;;;;;4590534;19;20433;-25
2023/08/06 07:10:44;;;;;;;4.50;4.10;;;18.70;99.90;;;;;;4591357;19;20350;-25
2023/08/06 07:12:16;;;;;;;5.05;4.55;;;18.70;99.90;;;;;;4588316;19;20039;-24
2023/08/06 07:13:49;;;;;;;4.70;4.20;;;18.80;99.90;;;;;;4590286;19;20444;-24
2023/08/06 07:15:35;;;;;;;4.78;4.35;;;18.70;99.90;;;;;;4591073;19;20021;-25
2023/08/06 07:17:06;;;;;;;4.68;4.28;;;18.70;99.90;;;;;;4591469;19;20467;-24
2023/08/06 07:18:38;;;;;;;5.50;4.95;;;18.80;99.90;;;;;;4592255;19;20018;-28
2023/08/06 07:20:09;;;;;;;5.18;4.50;;;18.80;99.90;;;;;;4591490;19;20010;-26
2023/08/06 07:21:41;;;;;;;4.88;4.40;;;18.80;99.90;;;;;;4591184;19;20028;-30
2023/08/06 07:23:13;;;;;;;5.35;4.85;;;18.80;99.90;;;;;;4589185;19;20014;-29
2023/08/06 07:24:45;;;;;;;;;;;18.80;99.90;;;;;;4591248;19;20066;-27
2023/08/06 07:26:17;;;;;;;;;;;18.80;99.90;;;;;;4591383;19;19919;-30
2023/08/06 07:27:53;;;;;;;5.75;5.20;;;18.80;99.90;;;;;;4590261;19;20268;-24
2023/08/06 07:29:24;;;;;;;5.50;5.00;;;18.80;99.90;;;;;;4591344;19;20006;-25
2023/08/06 07:30:55;;;;;;;;;;;18.80;99.90;;;;;;4592210;19;20377;-25
2023/08/06 07:32:27;;;;;;;5.90;5.40;;;18.80;99.90;;;;;;4590307;19;19919;-24
2023/08/06 07:34:01;;;;;;;5.38;4.88;;;18.80;99.90;;;;;;4591526;19;20018;-25
2023/08/06 07:35:33;;;;;;;5.57;4.82;;;18.80;99.90;;;;;;4589540;19;20078;-25
2023/08/06 07:37:05;;;;;;;5.07;4.57;;;18.80;99.90;;;;;;4590353;19;20018;-27
2023/08/06 07:38:38;;;;;;;5.28;4.78;;;18.80;99.90;;;;;;4590295;19;20013;-28
2023/08/06 07:40:10;;;;;;;6.07;5.47;;;18.80;99.90;;;;;;4591056;19;20361;-24
2023/08/06 07:41:42;;;;;;;5.90;5.40;;;18.80;99.90;;;;;;4591250;19;20010;-24
2023/08/06 07:43:15;;;;;;;5.95;5.45;;;18.80;99.90;;;;;;4590272;19;20019;-24
2023/08/06 07:44:51;;;;;;;;;;;18.90;99.90;;;;;;4591586;19;20082;-24
2023/08/06 07:46:24;;;;;;;6.28;5.70;;;18.90;99.90;;;;;;4587277;19;19922;-25
2023/08/06 07:47:55;;;;;;;6.72;6.13;;;18.90;99.90;;;;;;4590959;19;20401;-25
2023/08/06 07:49:27;;;;;;;5.78;5.28;;;18.90;99.90;;;;;;4591674;19;20023;-25
2023/08/06 07:51:00;;;;;;;6.60;6.00;;;18.90;99.90;;;;;;4590334;19;20018;-25
2023/08/06 07:52:34;;;;;;;6.90;6.30;;;18.90;99.90;;;;;;4590848;19;20020;-24
2023/08/06 07:54:07;;;;;;;6.90;6.30;;;18.90;99.90;;;;;;4591031;19;20090;-25
2023/08/06 07:55:54;;;;;;;7.53;6.88;;;18.90;99.90;;;;;;4590749;19;19999;-26
2023/08/06 07:57:25;;;;;;;;;;;19.00;99.90;;;;;;4589363;19;20007;-25
2023/08/06 07:58:56;;;;;;;7.10;6.40;;;19.00;99.90;;;;;;4590084;19;20271;-26
2023/08/06 08:00:28;;;;;;;7.28;6.65;;;19.00;99.90;;;;;;4592141;19;21166;-26
2023/08/06 08:02:00;;;;;;;6.22;5.72;;;19.00;99.90;;;;;;4589812;19;20014;-25
2023/08/06 08:03:31;;;;;;;7.07;6.47;;;19.00;99.90;;;;;;4590226;19;20018;-24
2023/08/06 08:05:03;;;;;;;7.57;6.88;;;18.90;99.90;;;;;;4589761;19;20014;-25
2023/08/06 08:06:34;;;;;;;7.10;6.45;;;19.00;99.90;;;;;;4588929;19;20010;-24
2023/08/06 08:08:05;;;;;;;7.07;6.47;;;18.90;99.90;;;;;;4590126;19;20010;-25
2023/08/06 08:09:36;;;;;;;6.97;6.38;;;19.00;99.90;;;;;;4590333;19;20014;-25